createdAt,value
2017-09-05T00:00:17.814Z,24.31
2017-09-05T00:00:58.260Z,24.34
2017-09-05T00:01:38.731Z,24.32
2017-09-05T00:02:19.236Z,24.37
2017-09-05T00:02:59.691Z,24.32
2017-09-05T00:03:40.155Z,24.32
2017-09-05T00:04:20.606Z,24.32
2017-09-05T00:05:01.080Z,24.34
2017-09-05T00:05:41.501Z,24.36
2017-09-05T00:06:21.954Z,24.34
2017-09-05T00:07:02.406Z,24.34
2017-09-05T00:07:42.862Z,24.34
2017-09-05T00:08:23.311Z,24.36
2017-09-05T00:09:03.769Z,24.34
2017-09-05T00:09:44.221Z,24.41
2017-09-05T00:10:24.684Z,24.31
2017-09-05T00:11:05.142Z,24.31
2017-09-05T00:11:45.599Z,24.36
2017-09-05T00:12:26.051Z,24.31
2017-09-05T00:13:06.508Z,24.4
2017-09-05T00:13:46.963Z,24.32
2017-09-05T00:14:27.417Z,24.34
2017-09-05T00:15:07.883Z,24.38
2017-09-05T00:15:48.333Z,24.37
2017-09-05T00:16:28.789Z,24.37
2017-09-05T00:17:09.237Z,24.32
2017-09-05T00:17:49.692Z,24.32
2017-09-05T00:18:30.144Z,24.31
2017-09-05T00:19:10.600Z,24.28
2017-09-05T00:19:51.056Z,24.25
2017-09-05T00:20:31.516Z,24.26
2017-09-05T00:21:11.974Z,24.24
2017-09-05T00:21:52.430Z,24.32
2017-09-05T00:22:32.893Z,24.29
2017-09-05T00:23:13.348Z,24.36
2017-09-05T00:23:53.810Z,24.31
2017-09-05T00:24:34.250Z,24.26
2017-09-05T00:25:14.717Z,24.26
2017-09-05T00:25:55.163Z,24.21
2017-09-05T00:26:35.607Z,24.28
2017-09-05T00:27:16.067Z,24.24
2017-09-05T00:27:56.520Z,24.29
2017-09-05T00:28:36.974Z,24.18
2017-09-05T00:29:17.436Z,24.22
2017-09-05T00:29:57.895Z,24.25
2017-09-05T00:30:38.348Z,24.18
2017-09-05T00:31:18.800Z,24.24
2017-09-05T00:31:59.258Z,24.26
2017-09-05T00:32:39.719Z,24.25
2017-09-05T00:33:20.201Z,24.28
2017-09-05T00:34:00.623Z,24.26
2017-09-05T00:34:41.084Z,24.22
2017-09-05T00:35:21.531Z,24.26
2017-09-05T00:36:02.047Z,24.18
2017-09-05T00:36:42.408Z,24.28
2017-09-05T00:37:22.864Z,24.21
2017-09-05T00:38:03.317Z,24.22
2017-09-05T00:38:43.778Z,24.29
2017-09-05T00:39:24.227Z,24.26
2017-09-05T00:40:04.723Z,24.24
2017-09-05T00:40:45.180Z,24.28
2017-09-05T00:41:25.637Z,24.21
2017-09-05T00:42:06.091Z,24.18
2017-09-05T00:42:46.548Z,24.25
2017-09-05T00:43:27.104Z,24.22
2017-09-05T00:44:07.555Z,24.22
2017-09-05T00:44:48.007Z,24.21
2017-09-05T00:45:28.465Z,24.28
2017-09-05T00:46:08.923Z,24.21
2017-09-05T00:46:49.369Z,24.18
2017-09-05T00:47:29.831Z,24.24
2017-09-05T00:48:10.273Z,24.24
2017-09-05T00:48:50.724Z,24.22
2017-09-05T00:49:31.177Z,24.19
2017-09-05T00:50:11.631Z,24.19
2017-09-05T00:50:52.092Z,24.19
2017-09-05T00:51:32.545Z,24.16
2017-09-05T00:52:13.008Z,24.18
2017-09-05T00:52:53.456Z,24.19
2017-09-05T00:53:33.913Z,24.18
2017-09-05T00:54:14.378Z,24.21
2017-09-05T00:54:54.811Z,24.19
2017-09-05T00:55:35.267Z,24.18
2017-09-05T00:56:15.715Z,24.18
2017-09-05T00:56:56.166Z,24.19
2017-09-05T00:57:36.616Z,24.24
2017-09-05T00:58:17.066Z,24.19
2017-09-05T00:58:57.521Z,24.19
2017-09-05T00:59:37.981Z,24.16
2017-09-05T01:00:18.439Z,24.18
2017-09-05T01:00:58.890Z,24.21
2017-09-05T01:01:39.345Z,24.22
2017-09-05T01:02:19.800Z,24.19
2017-09-05T01:03:00.253Z,24.14
2017-09-05T01:03:40.726Z,24.18
2017-09-05T01:04:21.191Z,24.18
2017-09-05T01:05:01.647Z,24.11
2017-09-05T01:05:42.099Z,24.19
2017-09-05T01:06:22.549Z,24.18
2017-09-05T01:07:03.002Z,24.16
2017-09-05T01:07:43.460Z,24.19
2017-09-05T01:08:23.918Z,24.19
2017-09-05T01:09:04.365Z,24.13
2017-09-05T01:09:44.822Z,24.19
2017-09-05T01:10:25.287Z,24.16
2017-09-05T01:11:05.739Z,24.14
2017-09-05T01:11:46.196Z,24.18
2017-09-05T01:12:26.664Z,24.21
2017-09-05T01:13:07.109Z,24.25
2017-09-05T01:13:47.577Z,24.18
2017-09-05T01:14:28.024Z,24.19
2017-09-05T01:15:08.477Z,24.22
2017-09-05T01:15:48.931Z,24.14
2017-09-05T01:16:29.393Z,24.18
2017-09-05T01:17:09.841Z,24.19
2017-09-05T01:17:50.308Z,24.16
2017-09-05T01:18:30.771Z,24.18
2017-09-05T01:19:11.220Z,24.21
2017-09-05T01:19:51.676Z,24.21
2017-09-05T01:20:32.125Z,24.11
2017-09-05T01:21:12.574Z,24.19
2017-09-05T01:21:53.031Z,24.21
2017-09-05T01:22:33.486Z,24.18
2017-09-05T01:23:13.948Z,24.11
2017-09-05T01:23:54.401Z,24.21
2017-09-05T01:24:34.850Z,24.14
2017-09-05T01:25:15.328Z,24.19
2017-09-05T01:25:55.778Z,24.16
2017-09-05T01:26:36.227Z,24.07
2017-09-05T01:27:16.687Z,24.16
2017-09-05T01:27:57.152Z,24.18
2017-09-05T01:28:37.654Z,24.19
2017-09-05T01:29:18.113Z,24.16
2017-09-05T01:29:58.560Z,24.13
2017-09-05T01:30:39.011Z,24.19
2017-09-05T01:31:19.460Z,24.19
2017-09-05T01:31:59.914Z,24.22
2017-09-05T01:32:40.365Z,24.19
2017-09-05T01:33:20.816Z,24.21
2017-09-05T01:34:01.301Z,24.16
2017-09-05T01:34:41.759Z,24.14
2017-09-05T01:35:22.215Z,24.21
2017-09-05T01:36:02.663Z,24.14
2017-09-05T01:36:43.118Z,24.19
2017-09-05T01:37:23.587Z,24.18
2017-09-05T01:38:04.049Z,24.1
2017-09-05T01:38:44.495Z,24.09
2017-09-05T01:39:25.026Z,24.16
2017-09-05T01:40:05.467Z,24.18
2017-09-05T01:40:45.922Z,24.19
2017-09-05T01:41:26.372Z,24.14
2017-09-05T01:42:06.828Z,24.14
2017-09-05T01:42:47.283Z,24.11
2017-09-05T01:43:27.734Z,24.16
2017-09-05T01:44:08.209Z,24.16
2017-09-05T01:44:48.663Z,24.1
2017-09-05T01:45:29.121Z,24.18
2017-09-05T01:46:09.574Z,24.16
2017-09-05T01:46:50.026Z,24.14
2017-09-05T01:47:30.482Z,24.16
2017-09-05T01:48:10.928Z,24.18
2017-09-05T01:48:51.387Z,24.19
2017-09-05T01:49:31.836Z,24.11
2017-09-05T01:50:12.289Z,24.18
2017-09-05T01:50:52.743Z,24.18
2017-09-05T01:51:33.190Z,24.18
2017-09-05T01:52:13.644Z,24.1
2017-09-05T01:52:54.095Z,24.1
2017-09-05T01:53:34.560Z,24.14
2017-09-05T01:54:15.001Z,24.13
2017-09-05T01:54:55.457Z,24.14
2017-09-05T01:55:35.907Z,24.11
2017-09-05T01:56:16.359Z,24.14
2017-09-05T01:56:56.820Z,24.1
2017-09-05T01:57:37.274Z,24.14
2017-09-05T01:58:17.731Z,24.13
2017-09-05T01:58:58.186Z,24.13
2017-09-05T01:59:38.644Z,24.13
2017-09-05T02:00:19.077Z,24.13
2017-09-05T02:00:59.524Z,24.14
2017-09-05T02:01:39.973Z,24.16
2017-09-05T02:02:20.424Z,24.11
2017-09-05T02:03:00.879Z,24.11
2017-09-05T02:03:41.335Z,24.09
2017-09-05T02:04:21.785Z,24.03
2017-09-05T02:05:02.232Z,24.13
2017-09-05T02:05:42.690Z,24.1
2017-09-05T02:06:23.148Z,24.13
2017-09-05T02:07:03.612Z,24.1
2017-09-05T02:07:44.063Z,24.07
2017-09-05T02:08:24.509Z,24.11
2017-09-05T02:09:04.961Z,24.14
2017-09-05T02:09:45.423Z,24.14
2017-09-05T02:10:25.880Z,24.09
2017-09-05T02:11:06.328Z,24.13
2017-09-05T02:11:46.775Z,24.07
2017-09-05T02:12:27.223Z,24.09
2017-09-05T02:13:07.673Z,24.13
2017-09-05T02:13:48.130Z,24.09
2017-09-05T02:14:28.585Z,24.11
2017-09-05T02:15:09.038Z,24.04
2017-09-05T02:15:49.495Z,24.11
2017-09-05T02:16:29.944Z,24.09
2017-09-05T02:17:10.394Z,24.07
2017-09-05T02:17:50.847Z,24.11
2017-09-05T02:18:31.301Z,24.07
2017-09-05T02:19:11.757Z,24.1
2017-09-05T02:19:52.215Z,24.1
2017-09-05T02:20:32.680Z,24.04
2017-09-05T02:21:13.137Z,24.07
2017-09-05T02:21:53.615Z,24.09
2017-09-05T02:22:34.063Z,24.07
2017-09-05T02:23:14.519Z,24.04
2017-09-05T02:23:54.974Z,24.11
2017-09-05T02:24:35.429Z,24.07
2017-09-05T02:25:15.878Z,24.1
2017-09-05T02:25:56.327Z,24.07
2017-09-05T02:26:36.776Z,24.07
2017-09-05T02:27:17.240Z,24.09
2017-09-05T02:27:57.701Z,24.09
2017-09-05T02:28:38.154Z,24.1
2017-09-05T02:29:18.609Z,24.07
2017-09-05T02:29:59.064Z,24.03
2017-09-05T02:30:39.626Z,24.1
2017-09-05T02:31:20.074Z,24.01
2017-09-05T02:32:00.533Z,24.09
2017-09-05T02:32:40.991Z,24.04
2017-09-05T02:33:21.441Z,24.04
2017-09-05T02:34:01.893Z,24.03
2017-09-05T02:34:42.349Z,24.11
2017-09-05T02:35:22.879Z,24.01
2017-09-05T02:36:03.334Z,24.11
2017-09-05T02:36:43.793Z,24.1
2017-09-05T02:37:24.346Z,24.14
2017-09-05T02:38:04.801Z,24.06
2017-09-05T02:38:45.250Z,24.06
2017-09-05T02:39:25.724Z,24.11
2017-09-05T02:40:06.178Z,24.07
2017-09-05T02:40:46.632Z,24.01
2017-09-05T02:41:27.116Z,24.06
2017-09-05T02:42:07.561Z,24.06
2017-09-05T02:42:48.037Z,24.07
2017-09-05T02:43:28.469Z,24.01
2017-09-05T02:44:08.913Z,24.1
2017-09-05T02:44:49.378Z,24
2017-09-05T02:45:29.833Z,24.1
2017-09-05T02:46:10.287Z,24.07
2017-09-05T02:46:50.730Z,24
2017-09-05T02:47:31.181Z,24.11
2017-09-05T02:48:11.627Z,24.11
2017-09-05T02:48:52.075Z,24.01
2017-09-05T02:49:32.529Z,24.07
2017-09-05T02:50:12.976Z,23.99
2017-09-05T02:50:53.436Z,23.95
2017-09-05T02:51:33.886Z,24.06
2017-09-05T02:52:14.344Z,23.95
2017-09-05T02:52:54.817Z,24.06
2017-09-05T02:53:35.277Z,24.03
2017-09-05T02:54:15.716Z,24.01
2017-09-05T02:54:56.165Z,23.99
2017-09-05T02:55:36.635Z,23.95
2017-09-05T02:56:17.096Z,23.96
2017-09-05T02:56:57.551Z,24
2017-09-05T02:57:38.006Z,23.95
2017-09-05T02:58:18.458Z,23.99
2017-09-05T02:58:58.905Z,24.03
2017-09-05T02:59:39.358Z,24.04
2017-09-05T03:00:19.833Z,23.94
2017-09-05T03:01:00.289Z,23.96
2017-09-05T03:01:40.751Z,23.94
2017-09-05T03:02:21.210Z,23.99
2017-09-05T03:03:01.663Z,23.94
2017-09-05T03:03:42.114Z,23.99
2017-09-05T03:04:22.567Z,23.95
2017-09-05T03:05:03.023Z,24.03
2017-09-05T03:05:43.477Z,24.04
2017-09-05T03:06:23.982Z,23.96
2017-09-05T03:07:04.436Z,23.92
2017-09-05T03:07:44.897Z,23.96
2017-09-05T03:08:25.346Z,23.89
2017-09-05T03:09:05.800Z,23.91
2017-09-05T03:09:46.252Z,23.94
2017-09-05T03:10:26.722Z,23.92
2017-09-05T03:11:07.173Z,23.95
2017-09-05T03:11:47.631Z,23.92
2017-09-05T03:12:28.084Z,23.94
2017-09-05T03:13:08.543Z,23.89
2017-09-05T03:13:48.997Z,23.91
2017-09-05T03:14:29.441Z,23.92
2017-09-05T03:15:09.901Z,23.92
2017-09-05T03:15:50.384Z,23.94
2017-09-05T03:16:30.840Z,23.94
2017-09-05T03:17:11.295Z,23.94
2017-09-05T03:17:51.748Z,23.88
2017-09-05T03:18:32.202Z,23.96
2017-09-05T03:19:12.650Z,24
2017-09-05T03:19:53.107Z,23.95
2017-09-05T03:20:33.558Z,23.99
2017-09-05T03:21:14.004Z,23.92
2017-09-05T03:21:54.476Z,23.92
2017-09-05T03:22:34.936Z,23.95
2017-09-05T03:23:15.392Z,23.92
2017-09-05T03:23:55.834Z,23.96
2017-09-05T03:24:36.278Z,23.94
2017-09-05T03:25:16.737Z,23.94
2017-09-05T03:25:57.192Z,23.95
2017-09-05T03:26:37.704Z,23.96
2017-09-05T03:27:18.161Z,23.94
2017-09-05T03:27:58.620Z,23.92
2017-09-05T03:28:39.199Z,23.91
2017-09-05T03:29:19.659Z,23.94
2017-09-05T03:30:00.119Z,23.99
2017-09-05T03:30:40.558Z,23.91
2017-09-05T03:31:21.004Z,23.95
2017-09-05T03:32:01.465Z,23.92
2017-09-05T03:33:59.169Z,23.92
2017-09-05T03:34:39.626Z,23.89
2017-09-05T03:35:20.075Z,23.96
2017-09-05T03:36:00.532Z,23.92
2017-09-05T03:36:40.976Z,23.92
2017-09-05T03:37:21.437Z,23.89
2017-09-05T03:38:01.960Z,23.88
2017-09-05T03:38:42.320Z,23.91
2017-09-05T03:39:22.783Z,23.88
2017-09-05T03:40:03.234Z,23.88
2017-09-05T03:40:43.698Z,23.89
2017-09-05T03:41:24.151Z,23.91
2017-09-05T03:42:04.593Z,23.86
2017-09-05T03:42:45.051Z,23.91
2017-09-05T03:43:25.506Z,23.92
2017-09-05T03:44:05.967Z,23.94
2017-09-05T03:44:46.419Z,23.88
2017-09-05T03:45:26.870Z,23.88
2017-09-05T03:46:07.320Z,23.89
2017-09-05T03:46:47.771Z,23.89
2017-09-05T03:47:28.225Z,23.91
2017-09-05T03:48:08.691Z,23.89
2017-09-05T03:48:49.141Z,23.91
2017-09-05T03:49:29.601Z,23.88
2017-09-05T03:50:10.051Z,23.95
2017-09-05T03:50:50.516Z,23.94
2017-09-05T03:51:30.964Z,23.91
2017-09-05T03:52:11.424Z,23.94
2017-09-05T03:52:51.870Z,23.89
2017-09-05T03:53:32.320Z,23.86
2017-09-05T03:54:12.767Z,23.92
2017-09-05T03:54:53.215Z,23.94
2017-09-05T03:55:33.663Z,23.94
2017-09-05T03:56:14.120Z,23.92
2017-09-05T03:56:54.569Z,23.95
2017-09-05T03:57:35.015Z,23.94
2017-09-05T03:58:15.467Z,23.91
2017-09-05T03:58:55.929Z,23.94
2017-09-05T03:59:36.377Z,23.89
2017-09-05T04:00:16.835Z,23.89
2017-09-05T04:00:57.285Z,23.88
2017-09-05T04:01:37.737Z,23.91
2017-09-05T04:02:18.185Z,23.91
2017-09-05T04:02:58.645Z,23.85
2017-09-05T04:03:39.102Z,23.88
2017-09-05T04:04:19.617Z,23.94
2017-09-05T04:05:00.066Z,23.94
2017-09-05T04:05:40.515Z,23.95
2017-09-05T04:06:20.973Z,23.89
2017-09-05T04:07:01.531Z,23.86
2017-09-05T04:07:41.957Z,23.85
2017-09-05T04:08:22.409Z,23.88
2017-09-05T04:09:02.858Z,23.81
2017-09-05T04:09:43.307Z,23.91
2017-09-05T04:10:23.764Z,23.86
2017-09-05T04:11:04.210Z,23.88
2017-09-05T04:11:44.666Z,23.85
2017-09-05T04:12:25.280Z,23.85
2017-09-05T04:13:05.740Z,23.86
2017-09-05T04:13:46.188Z,23.91
2017-09-05T04:14:26.637Z,23.91
2017-09-05T04:15:07.089Z,23.94
2017-09-05T04:15:47.539Z,23.95
2017-09-05T04:16:27.984Z,23.95
2017-09-05T04:17:08.431Z,23.94
2017-09-05T04:17:48.889Z,23.91
2017-09-05T04:18:29.341Z,23.88
2017-09-05T04:19:09.789Z,23.88
2017-09-05T04:19:50.249Z,23.94
2017-09-05T04:20:30.697Z,23.94
2017-09-05T04:21:11.148Z,23.89
2017-09-05T04:21:51.593Z,23.91
2017-09-05T04:22:32.051Z,23.89
2017-09-05T04:23:12.506Z,23.92
2017-09-05T04:23:52.966Z,23.94
2017-09-05T04:24:33.413Z,23.92
2017-09-05T04:25:13.876Z,23.91
2017-09-05T04:25:54.326Z,23.89
2017-09-05T04:26:34.774Z,23.91
2017-09-05T04:27:15.237Z,23.92
2017-09-05T04:27:55.685Z,23.94
2017-09-05T04:28:36.148Z,23.94
2017-09-05T04:29:16.593Z,23.94
2017-09-05T04:29:57.057Z,23.95
2017-09-05T04:30:37.554Z,23.89
2017-09-05T04:31:18.016Z,23.89
2017-09-05T04:31:58.479Z,23.82
2017-09-05T04:32:38.928Z,23.91
2017-09-05T04:33:19.375Z,23.88
2017-09-05T04:33:59.826Z,23.95
2017-09-05T04:34:40.273Z,23.91
2017-09-05T04:35:20.819Z,23.89
2017-09-05T04:36:01.270Z,23.89
2017-09-05T04:36:41.725Z,23.92
2017-09-05T04:37:22.169Z,23.89
2017-09-05T04:38:02.610Z,23.92
2017-09-05T04:38:43.058Z,23.92
2017-09-05T04:39:23.481Z,23.92
2017-09-05T04:40:03.954Z,23.96
2017-09-05T04:40:44.444Z,23.88
2017-09-05T04:41:24.888Z,23.92
2017-09-05T04:42:05.334Z,23.89
2017-09-05T04:42:45.822Z,23.92
2017-09-05T04:43:26.241Z,23.96
2017-09-05T04:44:06.684Z,23.92
2017-09-05T04:44:47.147Z,23.89
2017-09-05T04:45:27.612Z,23.94
2017-09-05T04:46:08.078Z,23.86
2017-09-05T04:46:48.525Z,23.91
2017-09-05T04:47:29.069Z,23.89
2017-09-05T04:48:09.527Z,23.89
2017-09-05T04:48:49.982Z,23.91
2017-09-05T04:49:30.439Z,23.91
2017-09-05T04:50:10.874Z,23.91
2017-09-05T04:50:51.332Z,23.88
2017-09-05T04:51:31.787Z,23.95
2017-09-05T04:52:12.229Z,23.89
2017-09-05T04:52:52.697Z,23.91
2017-09-05T04:53:33.138Z,23.91
2017-09-05T04:54:13.587Z,23.91
2017-09-05T04:54:54.035Z,23.92
2017-09-05T04:55:34.481Z,23.92
2017-09-05T04:56:14.940Z,23.96
2017-09-05T04:56:55.388Z,23.94
2017-09-05T04:57:35.839Z,23.89
2017-09-05T04:58:16.281Z,23.92
2017-09-05T04:58:56.742Z,23.88
2017-09-05T04:59:37.223Z,23.94
2017-09-05T05:00:17.670Z,23.89
2017-09-05T05:00:58.117Z,23.86
2017-09-05T05:01:38.571Z,23.94
2017-09-05T05:02:19.016Z,23.91
2017-09-05T05:02:59.508Z,23.91
2017-09-05T05:03:39.928Z,23.91
2017-09-05T05:04:20.388Z,23.91
2017-09-05T05:05:00.836Z,23.99
2017-09-05T05:05:41.284Z,23.91
2017-09-05T05:06:21.737Z,23.94
2017-09-05T05:07:02.282Z,23.88
2017-09-05T05:07:42.635Z,23.95
2017-09-05T05:08:23.098Z,23.92
2017-09-05T05:09:03.548Z,23.91
2017-09-05T05:09:44.003Z,23.85
2017-09-05T05:10:24.458Z,23.92
2017-09-05T05:11:04.906Z,23.86
2017-09-05T05:11:45.370Z,23.96
2017-09-05T05:12:25.815Z,23.89
2017-09-05T05:13:06.251Z,23.92
2017-09-05T05:13:46.705Z,23.89
2017-09-05T05:14:27.170Z,23.89
2017-09-05T05:15:07.627Z,23.88
2017-09-05T05:15:48.082Z,23.96
2017-09-05T05:16:28.544Z,23.89
2017-09-05T05:17:08.997Z,23.94
2017-09-05T05:17:49.443Z,23.88
2017-09-05T05:18:29.899Z,23.92
2017-09-05T05:19:10.360Z,23.88
2017-09-05T05:19:50.821Z,23.89
2017-09-05T05:20:31.314Z,23.89
2017-09-05T05:21:11.964Z,23.95
2017-09-05T05:21:52.416Z,23.92
2017-09-05T05:22:32.865Z,23.92
2017-09-05T05:23:13.311Z,23.95
2017-09-05T05:23:53.765Z,23.86
2017-09-05T05:24:34.213Z,23.95
2017-09-05T05:25:14.672Z,23.89
2017-09-05T05:25:55.128Z,23.92
2017-09-05T05:26:35.581Z,23.91
2017-09-05T05:27:16.035Z,23.88
2017-09-05T05:27:56.493Z,23.94
2017-09-05T05:28:36.943Z,23.94
2017-09-05T05:30:49.807Z,23.92
2017-09-05T05:31:30.290Z,23.91
2017-09-05T05:32:10.750Z,23.89
2017-09-05T05:32:51.346Z,23.86
2017-09-05T05:34:44.247Z,23.96
2017-09-05T05:35:24.697Z,23.89
2017-09-05T05:36:05.149Z,23.94
2017-09-05T05:36:45.605Z,23.99
2017-09-05T05:37:26.054Z,23.96
2017-09-05T05:38:06.513Z,23.92
2017-09-05T05:38:46.962Z,23.95
2017-09-05T05:39:27.403Z,23.94
2017-09-05T05:40:07.859Z,23.95
2017-09-05T05:40:48.308Z,23.88
2017-09-05T05:41:28.758Z,23.92
2017-09-05T05:42:09.221Z,23.96
2017-09-05T05:42:49.678Z,23.94
2017-09-05T05:43:30.117Z,23.95
2017-09-05T05:44:10.569Z,23.92
2017-09-05T05:44:51.055Z,23.88
2017-09-05T05:45:31.502Z,23.96
2017-09-05T05:46:11.956Z,23.96
2017-09-05T05:46:52.414Z,23.88
2017-09-05T05:47:32.866Z,23.91
2017-09-05T05:48:13.309Z,23.89
2017-09-05T05:48:53.764Z,23.92
2017-09-05T05:49:34.218Z,23.92
2017-09-05T05:50:14.681Z,23.95
2017-09-05T05:50:55.141Z,23.99
2017-09-05T05:51:35.591Z,23.92
2017-09-05T05:52:16.049Z,23.92
2017-09-05T05:52:56.514Z,23.96
2017-09-05T05:53:37.014Z,23.92
2017-09-05T05:54:17.480Z,23.92
2017-09-05T05:54:57.932Z,23.94
2017-09-05T05:55:38.452Z,23.96
2017-09-05T05:56:18.910Z,23.95
2017-09-05T05:56:59.366Z,23.96
2017-09-05T05:57:39.958Z,23.94
2017-09-05T05:58:20.409Z,24
2017-09-05T05:59:00.893Z,23.99
2017-09-05T05:59:41.386Z,23.94
2017-09-05T06:00:21.837Z,24.09
2017-09-05T06:01:02.363Z,23.99
2017-09-05T06:01:42.837Z,23.96
2017-09-05T06:02:23.290Z,23.95
2017-09-05T06:03:03.917Z,24.06
2017-09-05T06:03:44.696Z,24.01
2017-09-05T06:04:25.172Z,24.06
2017-09-05T06:05:05.616Z,23.92
2017-09-05T06:05:46.067Z,24.04
2017-09-05T06:06:26.523Z,24.01
2017-09-05T06:07:06.977Z,23.92
2017-09-05T06:07:47.423Z,23.92
2017-09-05T06:08:27.884Z,23.96
2017-09-05T06:09:08.329Z,23.99
2017-09-05T06:09:48.777Z,23.99
2017-09-05T06:10:29.239Z,24.06
2017-09-05T06:11:09.686Z,23.99
2017-09-05T06:11:50.142Z,23.92
2017-09-05T06:12:30.614Z,23.92
2017-09-05T06:13:11.078Z,23.92
2017-09-05T06:13:51.564Z,24.04
2017-09-05T06:14:32.003Z,24.03
2017-09-05T06:15:12.446Z,24.01
2017-09-05T06:15:52.936Z,24.04
2017-09-05T06:16:33.400Z,24.13
2017-09-05T06:17:13.855Z,23.96
2017-09-05T06:17:54.309Z,24.04
2017-09-05T06:18:34.754Z,24.07
2017-09-05T06:19:15.210Z,24.09
2017-09-05T06:19:55.666Z,24.09
2017-09-05T06:20:36.114Z,24.06
2017-09-05T06:21:16.574Z,24.01
2017-09-05T06:21:57.027Z,24.01
2017-09-05T06:22:37.479Z,24.06
2017-09-05T06:23:17.920Z,24.03
2017-09-05T06:23:58.378Z,24.13
2017-09-05T06:24:38.828Z,24.1
2017-09-05T06:25:19.295Z,24.14
2017-09-05T06:25:59.752Z,24.14
2017-09-05T06:26:40.224Z,24.11
2017-09-05T06:27:20.662Z,24.14
2017-09-05T06:28:01.154Z,24.13
2017-09-05T06:28:41.612Z,24.18
2017-09-05T06:29:22.155Z,24.14
2017-09-05T06:30:02.608Z,24.19
2017-09-05T06:30:43.056Z,24.28
2017-09-05T06:31:23.512Z,24.24
2017-09-05T06:32:03.967Z,24.24
2017-09-05T06:32:44.414Z,24.29
2017-09-05T06:33:24.874Z,24.26
2017-09-05T06:34:05.331Z,24.31
2017-09-05T06:34:45.789Z,24.32
2017-09-05T06:35:26.236Z,24.41
2017-09-05T06:36:06.699Z,24.38
2017-09-05T06:36:47.152Z,24.37
2017-09-05T06:37:27.612Z,24.43
2017-09-05T06:38:08.063Z,24.4
2017-09-05T06:38:48.513Z,24.46
2017-09-05T06:39:28.972Z,24.4
2017-09-05T06:40:09.429Z,24.5
2017-09-05T06:40:49.887Z,24.47
2017-09-05T06:42:42.623Z,24.58
2017-09-05T06:43:23.083Z,24.47
2017-09-05T06:44:03.528Z,24.58
2017-09-05T06:44:43.984Z,24.58
2017-09-05T06:45:24.424Z,24.58
2017-09-05T06:46:04.877Z,24.62
2017-09-05T06:46:45.337Z,24.62
2017-09-05T06:47:25.797Z,24.62
2017-09-05T06:48:06.246Z,24.66
2017-09-05T06:48:46.705Z,24.68
2017-09-05T06:49:27.165Z,24.69
2017-09-05T06:50:07.623Z,24.69
2017-09-05T06:50:48.077Z,24.75
2017-09-05T06:51:28.528Z,24.79
2017-09-05T06:52:08.977Z,24.69
2017-09-05T06:52:49.435Z,24.78
2017-09-05T06:53:29.887Z,24.82
2017-09-05T06:54:10.340Z,24.85
2017-09-05T06:54:50.822Z,24.81
2017-09-05T06:55:31.253Z,24.81
2017-09-05T06:56:11.705Z,24.75
2017-09-05T06:56:52.168Z,24.77
2017-09-05T06:57:32.597Z,24.82
2017-09-05T06:58:13.051Z,24.82
2017-09-05T06:58:53.496Z,24.78
2017-09-05T06:59:33.946Z,24.79
2017-09-05T07:00:14.398Z,24.79
2017-09-05T07:00:54.849Z,24.75
2017-09-05T07:01:35.280Z,24.78
2017-09-05T07:02:15.735Z,24.82
2017-09-05T07:02:56.190Z,24.82
2017-09-05T07:03:36.634Z,24.82
2017-09-05T07:04:17.082Z,24.82
2017-09-05T07:04:57.533Z,24.82
2017-09-05T07:05:38.075Z,24.86
2017-09-05T07:06:18.534Z,24.89
2017-09-05T07:06:58.979Z,24.86
2017-09-05T07:07:39.433Z,24.88
2017-09-05T07:08:19.888Z,24.85
2017-09-05T07:09:00.342Z,24.97
2017-09-05T07:09:40.790Z,24.93
2017-09-05T07:10:21.247Z,24.94
2017-09-05T07:11:01.698Z,24.99
2017-09-05T07:11:42.154Z,24.86
2017-09-05T07:12:22.601Z,24.93
2017-09-05T07:13:03.138Z,24.86
2017-09-05T07:14:40.576Z,24.89
2017-09-05T07:15:21.134Z,24.88
2017-09-05T07:16:01.586Z,24.92
2017-09-05T07:16:42.038Z,24.93
2017-09-05T07:17:22.503Z,24.88
2017-09-05T07:18:02.954Z,24.92
2017-09-05T07:18:43.405Z,24.84
2017-09-05T07:19:23.856Z,24.82
2017-09-05T07:20:04.308Z,24.79
2017-09-05T07:20:44.770Z,24.82
2017-09-05T07:21:25.225Z,24.81
2017-09-05T07:22:05.691Z,24.81
2017-09-05T07:22:46.148Z,24.84
2017-09-05T07:23:26.597Z,24.82
2017-09-05T07:24:07.047Z,24.81
2017-09-05T07:24:47.498Z,24.85
2017-09-05T07:25:27.959Z,24.84
2017-09-05T07:26:08.403Z,24.78
2017-09-05T07:26:48.855Z,24.84
2017-09-05T07:27:29.315Z,24.78
2017-09-05T07:28:09.767Z,24.82
2017-09-05T07:28:50.218Z,24.78
2017-09-05T07:29:30.674Z,24.84
2017-09-05T07:30:11.125Z,24.82
2017-09-05T07:30:51.575Z,24.85
2017-09-05T07:31:32.029Z,24.88
2017-09-05T07:32:12.489Z,24.85
2017-09-05T07:32:52.943Z,24.89
2017-09-05T07:33:33.401Z,24.85
2017-09-05T07:34:13.858Z,24.82
2017-09-05T07:34:54.315Z,24.88
2017-09-05T07:35:34.765Z,24.86
2017-09-05T07:36:15.242Z,24.86
2017-09-05T07:36:55.681Z,24.89
2017-09-05T07:37:36.128Z,24.88
2017-09-05T07:38:16.582Z,24.85
2017-09-05T07:38:57.039Z,24.86
2017-09-05T07:39:37.541Z,24.92
2017-09-05T07:40:18.061Z,24.97
2017-09-05T07:40:58.534Z,24.93
2017-09-05T07:41:39.054Z,24.99
2017-09-05T07:42:19.512Z,24.97
2017-09-05T07:42:59.947Z,25.01
2017-09-05T07:43:40.404Z,25.07
2017-09-05T07:44:20.868Z,25.15
2017-09-05T07:45:01.363Z,25.21
2017-09-05T07:45:41.848Z,25.22
2017-09-05T07:46:22.284Z,25.24
2017-09-05T07:47:02.727Z,25.24
2017-09-05T07:47:43.184Z,25.3
2017-09-05T07:48:23.649Z,25.41
2017-09-05T07:49:04.092Z,25.41
2017-09-05T07:49:44.550Z,25.49
2017-09-05T07:50:24.992Z,25.43
2017-09-05T07:51:05.440Z,25.49
2017-09-05T07:51:45.891Z,25.52
2017-09-05T07:52:26.378Z,25.56
2017-09-05T07:54:24.476Z,25.7
2017-09-05T07:55:04.926Z,25.66
2017-09-05T07:55:45.379Z,25.74
2017-09-05T07:56:25.838Z,25.71
2017-09-05T07:57:06.291Z,25.68
2017-09-05T07:57:46.751Z,25.74
2017-09-05T07:58:27.201Z,25.77
2017-09-05T07:59:07.649Z,25.78
2017-09-05T07:59:48.103Z,25.88
2017-09-05T08:00:28.557Z,25.88
2017-09-05T08:01:09.013Z,25.83
2017-09-05T08:01:49.460Z,25.98
2017-09-05T08:02:29.919Z,25.92
2017-09-05T08:03:10.379Z,25.96
2017-09-05T08:03:50.839Z,25.98
2017-09-05T08:04:31.290Z,25.95
2017-09-05T08:05:11.746Z,25.98
2017-09-05T08:05:52.183Z,25.96
2017-09-05T08:07:29.619Z,25.91
2017-09-05T08:08:10.072Z,25.98
2017-09-05T08:08:50.524Z,25.99
2017-09-05T08:09:30.968Z,25.98
2017-09-05T08:10:11.427Z,25.98
2017-09-05T08:10:51.887Z,26.06
2017-09-05T08:11:32.352Z,26.13
2017-09-05T08:12:12.801Z,26.06
2017-09-05T08:12:53.247Z,26.11
2017-09-05T08:13:33.698Z,26.1
2017-09-05T08:14:14.157Z,26.11
2017-09-05T08:14:54.615Z,26.01
2017-09-05T08:15:35.073Z,26.15
2017-09-05T08:16:15.531Z,26.1
2017-09-05T08:16:55.989Z,26.13
2017-09-05T08:17:36.447Z,26.16
2017-09-05T08:18:16.899Z,26.16
2017-09-05T08:18:57.347Z,26.3
2017-09-05T08:19:37.801Z,26.3
2017-09-05T08:20:18.259Z,26.23
2017-09-05T08:20:58.710Z,26.33
2017-09-05T08:21:39.167Z,26.31
2017-09-05T08:22:19.625Z,26.36
2017-09-05T08:23:00.073Z,26.37
2017-09-05T08:23:40.530Z,26.41
2017-09-05T08:24:20.980Z,26.48
2017-09-05T08:25:01.496Z,26.48
2017-09-05T08:25:41.959Z,26.51
2017-09-05T08:26:22.401Z,26.48
2017-09-05T08:27:02.858Z,26.51
2017-09-05T08:27:43.310Z,26.53
2017-09-05T08:28:23.770Z,26.56
2017-09-05T08:29:04.225Z,26.6
2017-09-05T08:29:44.686Z,26.63
2017-09-05T08:30:25.140Z,26.66
2017-09-05T08:31:05.592Z,26.61
2017-09-05T08:31:46.048Z,26.71
2017-09-05T08:32:26.496Z,26.64
2017-09-05T08:33:06.949Z,26.64
2017-09-05T08:33:47.396Z,26.78
2017-09-05T08:34:27.845Z,26.71
2017-09-05T08:35:08.299Z,26.82
2017-09-05T08:35:48.754Z,26.81
2017-09-05T08:36:29.217Z,26.82
2017-09-05T08:37:09.678Z,26.81
2017-09-05T08:37:50.132Z,26.78
2017-09-05T08:38:30.588Z,26.91
2017-09-05T08:39:11.035Z,26.81
2017-09-05T08:39:51.485Z,26.86
2017-09-05T08:40:31.931Z,26.92
2017-09-05T08:41:12.386Z,26.88
2017-09-05T08:41:52.844Z,26.93
2017-09-05T08:42:33.293Z,27
2017-09-05T08:43:13.750Z,26.96
2017-09-05T08:43:54.217Z,27.01
2017-09-05T08:44:34.670Z,27.08
2017-09-05T08:45:15.125Z,27
2017-09-05T08:45:55.609Z,27.13
2017-09-05T08:46:36.040Z,27.04
2017-09-05T08:47:16.487Z,27.1
2017-09-05T08:47:56.938Z,27.15
2017-09-05T08:48:37.393Z,27.16
2017-09-05T08:49:17.935Z,27.16
2017-09-05T08:49:58.391Z,27.2
2017-09-05T08:50:38.839Z,27.16